Time;durP1;ratioP1;P1;durP2;ratioP2;P2;SDS_P1;SDS_P2;PMS_P1;PMS_P2;Temp;Humidity;BMP_temperature;BMP_pressure;BME280_temperature;BME280_humidity;BME280_pressure;Samples;Min_cycle;Max_cycle;Signal;HPM_P1;HPM_P2
2022/05/14 00:01:15;;;;;;;7.28;2.60;;;;;;;16.09;51.37;102018.84;5011454;28;20087;-70
2022/05/14 00:03:41;;;;;;;5.65;1.88;;;;;;;16.63;49.67;102013.13;5010610;28;20042;-69
2022/05/14 00:06:09;;;;;;;10.98;2.55;;;;;;;16.79;49.68;102010.75;5010903;28;20561;-69
2022/05/14 00:08:35;;;;;;;12.35;2.60;;;;;;;16.76;49.39;102014.81;5026101;28;20520;-70
2022/05/14 00:13:45;;;;;;;4.80;1.55;;;;;;;16.00;51.96;102001.25;4990850;28;20049;-69
2022/05/14 00:16:12;;;;;;;9.35;2.65;;;;;;;16.19;51.42;102007.44;4991277;28;20070;-71
2022/05/14 00:18:38;;;;;;;10.15;2.20;;;;;;;15.99;52.13;102004.19;4991174;28;20088;-71
2022/05/14 00:21:05;;;;;;;12.18;2.35;;;;;;;16.28;51.80;102006.84;4991166;28;20038;-71
2022/05/14 00:23:31;;;;;;;9.00;1.70;;;;;;;15.97;52.53;102000.88;4990820;28;20572;-69
2022/05/14 00:25:57;;;;;;;6.95;1.92;;;;;;;15.96;52.65;102000.06;4990358;28;20121;-69
2022/05/14 00:28:22;;;;;;;10.50;3.63;;;;;;;16.18;52.34;101997.63;4991640;28;20475;-70
2022/05/14 00:30:49;;;;;;;6.57;1.85;;;;;;;16.08;52.73;101990.06;4991245;28;20517;-69
2022/05/14 00:33:15;;;;;;;9.50;2.38;;;;;;;16.46;51.67;101995.91;4990766;28;20105;-69
2022/05/14 00:35:41;;;;;;;8.40;2.80;;;;;;;16.37;51.77;101993.78;4991324;28;20080;-69
2022/05/14 00:38:08;;;;;;;4.55;1.60;;;;;;;16.61;50.99;101998.97;4990421;28;20039;-70
2022/05/14 00:40:41;;;;;;;8.38;2.40;;;;;;;16.01;52.58;102002.91;4991621;28;20042;-68
2022/05/14 00:43:07;;;;;;;8.05;2.45;;;;;;;16.48;51.72;102001.06;4990734;28;20081;-69
2022/05/14 00:45:35;;;;;;;10.00;1.83;;;;;;;16.94;50.01;102006.53;4990988;28;20042;-69
2022/05/14 00:48:02;;;;;;;6.43;2.63;;;;;;;16.55;51.57;102024.34;4990847;28;20553;-70
2022/05/14 00:50:43;;;;;;;4.78;2.17;;;;;;;17.10;50.13;102016.63;4991219;28;20057;-69
2022/05/14 00:53:13;;;;;;;7.88;2.50;;;;;;;16.93;50.39;102023.03;4991084;28;20382;-70
2022/05/14 00:55:40;;;;;;;8.63;2.20;;;;;;;16.14;53.09;102007.28;4989892;28;20121;-71
2022/05/14 00:58:08;;;;;;;13.98;2.28;;;;;;;16.66;51.72;102015.41;4988060;28;20049;-68
2022/05/14 01:00:34;;;;;;;10.52;1.70;;;;;;;16.38;52.37;102017.09;4991229;28;20453;-71
2022/05/14 01:02:59;;;;;;;6.28;2.00;;;;;;;16.22;53.00;102009.66;5000241;28;20121;-69
2022/05/14 01:05:26;;;;;;;16.20;2.78;;;;;;;16.40;52.53;102015.81;5010577;28;20057;-69
2022/05/14 01:07:54;;;;;;;11.15;2.63;;;;;;;16.29;52.98;102013.94;5010713;28;20026;-69
2022/05/14 01:10:23;;;;;;;13.35;2.53;;;;;;;16.91;50.92;102022.44;5011066;28;20042;-67
2022/05/14 01:12:52;;;;;;;9.73;2.05;;;;;;;16.56;51.90;102028.72;5010328;28;20485;-69
2022/05/14 01:15:22;;;;;;;11.35;2.03;;;;;;;16.30;52.52;102025.59;5009699;28;20099;-70
2022/05/14 01:17:48;;;;;;;9.98;2.72;;;;;;;16.20;52.09;102014.47;5010785;28;20064;-68
2022/05/14 01:20:19;;;;;;;8.63;2.55;;;;;;;16.55;51.40;102016.22;5012341;28;20034;-68
2022/05/14 01:22:47;;;;;;;;;;;;;;;16.93;50.05;102017.59;5014838;28;20030;-68
2022/05/14 01:28:10;;;;;;;10.90;2.00;;;;;;;16.54;50.58;102013.72;4994224;28;20077;-70
2022/05/14 01:30:44;;;;;;;9.05;1.98;;;;;;;16.67;50.59;102008.06;5008907;28;20137;-69
2022/05/14 01:33:10;;;;;;;7.72;2.13;;;;;;;17.01;49.45;102017.22;4995562;28;20034;-69
2022/05/14 01:35:38;;;;;;;9.00;1.90;;;;;;;17.09;48.87;102025.84;5012965;28;20034;-70
2022/05/14 01:38:04;;;;;;;7.35;2.30;;;;;;;17.09;49.08;102025.84;5013613;28;20034;-70
2022/05/14 01:40:30;;;;;;;7.43;2.03;;;;;;;16.25;51.49;102026.31;5014128;28;20036;-69
2022/05/14 01:42:56;;;;;;;8.88;2.22;;;;;;;16.20;52.13;102031.59;5013515;28;20045;-69
2022/05/14 01:45:21;;;;;;;8.95;3.10;;;;;;;16.44;51.56;102035.16;5013459;28;20033;-69
2022/05/14 01:47:47;;;;;;;5.97;2.33;;;;;;;15.59;54.28;102021.03;5013389;28;20068;-69
2022/05/14 01:50:13;;;;;;;5.93;2.60;;;;;;;15.32;55.56;102019.72;5013109;28;20498;-69
2022/05/14 01:52:38;;;;;;;4.80;1.80;;;;;;;15.81;54.12;102026.78;5013800;28;20030;-69
2022/05/14 01:55:04;;;;;;;8.57;2.35;;;;;;;15.73;54.23;102033.34;5013414;28;20054;-69
2022/05/14 01:57:30;;;;;;;12.88;2.72;;;;;;;16.01;53.78;102031.91;5008459;28;20072;-70
2022/05/14 01:59:56;;;;;;;11.48;2.90;;;;;;;15.85;54.61;102033.41;5013292;28;20026;-70
2022/05/14 02:02:21;;;;;;;8.35;2.38;;;;;;;15.62;54.77;102026.03;5013057;28;20073;-71
2022/05/14 02:04:46;;;;;;;9.75;3.03;;;;;;;15.30;56.14;102026.41;5013153;28;20438;-69
2022/05/14 02:07:12;;;;;;;6.05;2.15;;;;;;;15.55;55.49;102030.69;5013381;28;20508;-69
2022/05/14 02:09:37;;;;;;;8.30;2.35;;;;;;;15.61;55.34;102023.50;5013376;28;20093;-70
2022/05/14 02:12:03;;;;;;;14.38;2.65;;;;;;;15.72;55.44;102030.88;5012960;28;20572;-69
2022/05/14 02:14:30;;;;;;;13.35;3.08;;;;;;;15.31;56.24;102030.78;5013124;28;20056;-70
2022/05/14 02:16:55;;;;;;;6.63;2.47;;;;;;;15.12;57.38;102034.53;5012304;28;20393;-69
2022/05/14 02:19:20;;;;;;;8.15;2.55;;;;;;;15.22;57.26;102034.81;5012877;28;20038;-69
2022/05/14 02:21:46;;;;;;;10.77;3.28;;;;;;;15.25;57.03;102026.25;5012657;28;20052;-73
2022/05/14 02:24:12;;;;;;;13.50;2.95;;;;;;;15.52;56.24;102025.72;5012418;28;20037;-71
2022/05/14 02:26:37;;;;;;;11.45;3.45;;;;;;;15.41;56.71;102025.66;5012848;28;20037;-71
2022/05/14 02:29:02;;;;;;;5.50;2.67;;;;;;;15.71;55.68;102032.75;5027974;28;20034;-70
2022/05/14 02:31:28;;;;;;;8.50;2.78;;;;;;;15.34;57.24;102024.88;5011882;28;20041;-70
2022/05/14 02:33:54;;;;;;;10.93;3.80;;;;;;;15.44;56.98;102034.19;5012303;28;20042;-69
2022/05/14 02:36:19;;;;;;;8.30;3.08;;;;;;;15.31;57.64;102037.00;5012356;28;20038;-70
2022/05/14 02:38:45;;;;;;;9.25;3.03;;;;;;;15.34;57.77;102041.97;5012265;28;20401;-69
2022/05/14 02:41:13;;;;;;;13.25;3.67;;;;;;;16.01;55.23;102050.88;5011736;28;20410;-70
2022/05/14 02:43:38;;;;;;;11.50;3.13;;;;;;;15.90;55.35;102043.56;5012825;28;20076;-70
2022/05/14 02:46:05;;;;;;;19.85;3.83;;;;;;;15.51;57.02;102043.03;5012361;28;20038;-72
2022/05/14 02:48:31;;;;;;;7.80;3.58;;;;;;;15.55;57.39;102048.81;5012257;28;20042;-69
2022/05/14 02:50:57;;;;;;;10.80;2.95;;;;;;;15.89;55.61;102047.31;5011967;28;20066;-70
2022/05/14 02:53:22;;;;;;;17.75;3.78;;;;;;;15.35;57.46;102054.44;5012529;28;20326;-69
2022/05/14 02:55:48;;;;;;;8.73;3.60;;;;;;;15.15;58.74;102048.47;5012139;28;20050;-68
2022/05/14 02:59:06;;;;;;;19.33;4.03;;;;;;;15.12;59.20;102057.03;5012464;28;20033;-70
2022/05/14 03:00:58;;;;;;;12.98;4.07;;;;;;;15.23;58.39;102050.03;5012103;28;20038;-70
2022/05/14 03:03:24;;;;;;;12.80;3.63;;;;;;;15.10;58.85;102051.00;5011504;28;20100;-70
2022/05/14 03:05:49;;;;;;;11.07;3.80;;;;;;;15.42;58.55;102046.28;5011661;28;20405;-69
2022/05/14 03:08:15;;;;;;;7.80;3.33;;;;;;;16.04;56.31;102037.69;5012141;28;20057;-70
2022/05/14 03:10:40;;;;;;;17.65;4.78;;;;;;;15.59;57.65;102036.47;5012341;28;20038;-69
2022/05/14 03:13:05;;;;;;;14.75;3.47;;;;;;;14.86;60.54;102039.19;5011812;28;20026;-69
2022/05/14 03:15:31;;;;;;;10.57;4.95;;;;;;;15.13;59.71;102034.31;5011795;28;20061;-69
2022/05/14 03:17:56;;;;;;;15.80;4.32;;;;;;;15.13;59.96;102038.91;5011893;28;20061;-67
2022/05/14 03:20:21;;;;;;;11.88;4.55;;;;;;;15.41;58.86;102041.91;5011481;28;20056;-69
2022/05/14 03:22:47;;;;;;;9.02;3.90;;;;;;;15.61;58.69;102042.47;5011272;28;20101;-68
2022/05/14 03:25:12;;;;;;;18.00;4.55;;;;;;;15.40;59.03;102040.22;5011944;28;20038;-69
2022/05/14 03:27:38;;;;;;;11.18;4.63;;;;;;;14.85;61.18;102032.13;5011656;28;20110;-69
2022/05/14 03:30:04;;;;;;;13.50;4.45;;;;;;;14.82;61.58;102042.56;5011509;28;20034;-68
2022/05/14 03:32:29;;;;;;;15.13;4.30;;;;;;;14.75;61.83;102034.53;5011374;28;20088;-67
2022/05/14 03:34:55;;;;;;;17.40;4.72;;;;;;;14.67;62.43;102037.50;5011215;28;20041;-69
2022/05/14 03:37:23;;;;;;;16.55;4.22;;;;;;;14.12;64.12;102046.47;5026615;28;20044;-71
2022/05/14 03:39:48;;;;;;;17.10;4.43;;;;;;;14.88;61.65;102036.25;5011140;28;20030;-69
2022/05/14 03:42:14;;;;;;;20.48;5.30;;;;;;;15.03;60.98;102034.03;5010951;28;20103;-68
2022/05/14 03:44:39;;;;;;;16.33;4.57;;;;;;;15.27;60.09;102045.81;5011092;28;20034;-67
2022/05/14 03:47:04;;;;;;;37.97;5.45;;;;;;;15.05;60.91;102037.31;5011155;28;20037;-70
2022/05/14 03:49:30;;;;;;;20.85;6.18;;;;;;;15.03;61.00;102044.00;5011809;28;20493;-68
2022/05/14 03:51:55;;;;;;;15.35;4.43;;;;;;;15.18;60.14;102044.44;5011004;28;20516;-69
2022/05/14 03:54:21;;;;;;;15.52;4.88;;;;;;;14.83;61.74;102055.03;5011140;28;20041;-69
2022/05/14 03:56:46;;;;;;;24.45;5.97;;;;;;;14.92;61.49;102054.53;5010862;28;20512;-69
2022/05/14 03:59:12;;;;;;;15.25;4.38;;;;;;;14.47;63.62;102044.13;5011360;28;20161;-69
2022/05/14 04:01:38;;;;;;;14.02;4.70;;;;;;;14.65;62.71;102049.59;5008783;28;20517;-68
2022/05/14 04:04:04;;;;;;;16.42;5.60;;;;;;;14.63;62.75;102052.53;5010806;28;20056;-69
2022/05/14 04:06:30;;;;;;;20.55;6.18;;;;;;;15.06;61.65;102059.78;5009946;28;20116;-70
2022/05/14 04:08:55;;;;;;;13.18;4.78;;;;;;;15.44;60.12;102071.25;5011076;28;20042;-69
2022/05/14 04:11:21;;;;;;;19.73;6.32;;;;;;;15.20;61.31;102064.84;5010719;28;20457;-68
2022/05/14 04:13:46;;;;;;;15.48;5.45;;;;;;;15.21;61.16;102071.94;5011042;28;20337;-69
2022/05/14 04:16:12;;;;;;;18.50;4.80;;;;;;;15.04;62.08;102067.31;5010747;28;20025;-69
2022/05/14 04:18:37;;;;;;;22.70;6.28;;;;;;;15.49;60.24;102064.09;5010880;28;20096;-68
2022/05/14 04:21:03;;;;;;;16.30;6.00;;;;;;;14.93;62.81;102069.72;5000319;28;20042;-70
2022/05/14 04:23:30;;;;;;;16.90;6.10;;;;;;;15.60;59.86;102068.78;4996977;28;20069;-68
2022/05/14 04:25:57;;;;;;;18.65;6.88;;;;;;;15.32;61.46;102073.03;5010709;28;20050;-70
2022/05/14 04:28:23;;;;;;;23.58;6.38;;;;;;;14.65;63.88;102072.06;5011314;28;20552;-69
2022/05/14 04:30:49;;;;;;;21.52;7.20;;;;;;;15.09;62.66;102071.03;5010531;28;20061;-70
2022/05/14 04:33:16;;;;;;;24.85;7.50;;;;;;;14.93;63.42;102068.91;5010584;28;20483;-69
2022/05/14 04:35:42;;;;;;;23.60;7.55;;;;;;;15.14;63.00;102081.16;5010567;28;20052;-69
2022/05/14 04:38:08;;;;;;;19.92;5.85;;;;;;;14.96;63.35;102084.69;5010353;28;20401;-68
2022/05/14 04:40:34;;;;;;;15.32;7.38;;;;;;;15.29;62.86;102087.84;5011178;28;20030;-69
2022/05/14 04:43:00;;;;;;;18.45;7.80;;;;;;;14.89;64.36;102092.88;5010684;28;20042;-68
2022/05/14 04:45:26;;;;;;;16.65;7.78;;;;;;;15.22;63.08;102091.69;5010709;28;20497;-68
2022/05/14 04:47:52;;;;;;;19.33;7.90;;;;;;;14.63;64.97;102089.56;5010483;28;20180;-69
2022/05/14 04:50:18;;;;;;;25.42;8.02;;;;;;;15.18;64.12;102090.50;5010564;28;20109;-69
2022/05/14 04:52:43;;;;;;;16.95;7.28;;;;;;;15.33;63.32;102097.19;5011128;28;20153;-69
2022/05/14 04:55:09;;;;;;;27.10;7.38;;;;;;;15.35;63.40;102094.28;5012444;28;20030;-69
2022/05/14 04:57:35;;;;;;;18.58;7.20;;;;;;;15.51;62.88;102097.22;5014102;28;20560;-69
2022/05/14 05:00:02;;;;;;;21.98;8.95;;;;;;;15.34;63.58;102103.44;5014115;28;20080;-69
2022/05/14 05:05:12;;;;;;;25.58;9.70;;;;;;;14.99;64.98;102086.94;5014378;28;20556;-68
2022/05/14 05:07:38;;;;;;;25.60;8.63;;;;;;;16.08;61.88;102103.16;5014252;28;20033;-67
2022/05/14 05:10:04;;;;;;;19.85;8.38;;;;;;;15.68;63.07;102098.25;5013911;28;20045;-67
2022/05/14 05:12:30;;;;;;;21.40;9.38;;;;;;;15.44;64.21;102095.66;5013749;28;20041;-69
2022/05/14 05:14:55;;;;;;;21.33;9.38;;;;;;;15.44;64.62;102104.59;5013686;28;20493;-69
2022/05/14 05:17:20;;;;;;;19.67;8.55;;;;;;;16.14;62.07;102107.63;5013821;28;20045;-68
2022/05/14 05:19:46;;;;;;;25.80;9.32;;;;;;;15.73;63.22;102120.09;5014211;28;20037;-69
2022/05/14 05:22:12;;;;;;;30.35;10.02;;;;;;;15.35;64.71;102122.16;5013454;28;20068;-68
2022/05/14 05:24:37;;;;;;;28.92;9.70;;;;;;;16.28;62.10;102117.22;5013611;28;20042;-67
2022/05/14 05:27:03;;;;;;;17.73;8.82;;;;;;;16.03;63.05;102109.25;5013725;28;20038;-69
2022/05/14 05:29:30;;;;;;;29.55;9.93;;;;;;;16.06;62.73;102116.91;5013522;28;20058;-67
2022/05/14 05:31:55;;;;;;;32.72;9.90;;;;;;;16.26;62.50;102122.88;5013583;28;20500;-68
2022/05/14 05:34:21;;;;;;;22.13;9.40;;;;;;;16.40;61.88;102124.34;5013927;28;20017;-68
2022/05/14 05:36:46;;;;;;;31.52;10.80;;;;;;;16.39;62.06;102130.81;5013239;28;20099;-67
2022/05/14 05:39:12;;;;;;;27.48;10.90;;;;;;;16.40;62.44;102127.06;5013312;28;20456;-68
2022/05/14 05:41:38;;;;;;;29.65;10.27;;;;;;;16.51;62.38;102139.84;5013209;28;20033;-69
2022/05/14 05:44:03;;;;;;;24.45;8.43;;;;;;;16.66;61.81;102132.13;5028390;28;20413;-68
2022/05/14 05:46:31;;;;;;;25.50;9.52;;;;;;;16.13;63.53;102139.38;5013825;28;20030;-67
2022/05/14 05:48:57;;;;;;;24.58;9.85;;;;;;;16.57;62.39;102143.50;5013225;28;20057;-69
2022/05/14 05:51:22;;;;;;;19.20;8.90;;;;;;;17.19;60.20;102151.03;5013433;28;20497;-67
2022/05/14 05:56:49;;;;;;;32.75;10.75;;;;;;;17.87;58.78;102151.16;5013183;28;20041;-68
2022/05/14 05:59:16;;;;;;;25.13;8.63;;;;;;;17.08;61.23;102160.00;5013228;28;20041;-68
2022/05/14 06:01:42;;;;;;;31.40;9.30;;;;;;;17.69;59.05;102156.75;5013812;28;20033;-69
2022/05/14 06:04:07;;;;;;;23.92;9.25;;;;;;;17.60;60.14;102157.38;5011235;28;20046;-68
2022/05/14 06:06:33;;;;;;;35.25;10.82;;;;;;;17.53;59.64;102152.91;5011146;28;20037;-67
2022/05/14 06:08:59;;;;;;;27.02;12.05;;;;;;;18.01;58.68;102162.59;5011385;28;20062;-68
2022/05/14 06:11:30;;;;;;;37.33;10.38;;;;;;;17.85;59.14;102156.00;5011790;28;20045;-68
2022/05/14 06:13:56;;;;;;;27.60;10.32;;;;;;;17.84;59.43;102167.13;5011471;28;20037;-67
2022/05/14 06:16:21;;;;;;;25.52;9.85;;;;;;;17.94;58.90;102165.47;5011780;28;20022;-70
2022/05/14 06:18:47;;;;;;;30.13;10.43;;;;;;;18.49;57.15;102159.44;5011299;28;20050;-69
2022/05/14 06:21:14;;;;;;;35.78;10.18;;;;;;;18.54;56.79;102165.81;5011089;28;20042;-67
2022/05/14 06:23:39;;;;;;;29.42;8.45;;;;;;;18.69;56.60;102168.78;5009980;28;20041;-68
2022/05/14 06:26:05;;;;;;;33.28;11.85;;;;;;;18.22;58.18;102168.19;5007092;28;20033;-68
2022/05/14 06:28:30;;;;;;;24.65;8.45;;;;;;;18.88;56.06;102162.03;5010875;28;20038;-67
2022/05/14 06:30:57;;;;;;;35.50;11.75;;;;;;;18.52;56.80;102164.38;5010555;28;20342;-68
2022/05/14 06:33:22;;;;;;;34.53;10.27;;;;;;;18.92;55.98;102168.63;5010623;28;20051;-68
2022/05/14 06:35:48;;;;;;;24.67;9.75;;;;;;;18.89;56.13;102181.91;5010153;28;20080;-67
2022/05/14 06:38:14;;;;;;;23.85;10.02;;;;;;;18.68;56.46;102179.91;5009852;28;20038;-68
2022/05/14 06:40:41;;;;;;;29.80;9.57;;;;;;;18.89;56.25;102185.47;5010907;28;20381;-67
2022/05/14 06:43:07;;;;;;;38.97;10.60;;;;;;;18.30;57.76;102178.66;5010056;28;20052;-68
2022/05/14 06:45:33;;;;;;;31.95;9.80;;;;;;;19.07;56.17;102182.50;5002932;28;20038;-70
2022/05/14 06:47:58;;;;;;;30.38;10.82;;;;;;;19.44;55.39;102187.44;5002261;28;20049;-68
2022/05/14 06:50:25;;;;;;;36.55;11.05;;;;;;;18.48;57.47;102174.94;5005553;28;20037;-67
2022/05/14 06:52:54;;;;;;;29.25;9.43;;;;;;;18.65;56.91;102180.44;5002904;28;20109;-69
2022/05/14 06:55:22;;;;;;;30.08;10.13;;;;;;;19.29;55.74;102183.38;5002713;28;20088;-69
2022/05/14 06:57:50;;;;;;;24.83;8.60;;;;;;;18.71;57.46;102195.78;5002764;28;20042;-69
2022/05/14 07:00:16;;;;;;;35.15;10.27;;;;;;;18.93;56.38;102181.16;5002721;28;20038;-68
2022/05/14 07:02:43;;;;;;;29.42;9.57;;;;;;;19.56;54.71;102186.25;5001764;28;20062;-68
2022/05/14 07:07:53;;;;;;;28.95;9.07;;;;;;;20.02;53.88;102185.75;5003791;28;20032;-69
2022/05/14 07:10:19;;;;;;;30.33;8.98;;;;;;;20.19;53.74;102195.78;5002355;28;20034;-68
2022/05/14 07:12:44;;;;;;;36.05;10.32;;;;;;;20.20;52.98;102197.44;5002229;28;20031;-70
2022/05/14 07:15:11;;;;;;;30.23;9.68;;;;;;;19.38;55.11;102202.88;5002593;28;20034;-69
2022/05/14 07:17:37;;;;;;;28.98;8.48;;;;;;;18.97;56.87;102201.41;5002649;28;20088;-68
2022/05/14 07:20:03;;;;;;;31.13;9.07;;;;;;;20.22;53.60;102203.47;5001002;28;20030;-68
2022/05/14 07:22:28;;;;;;;29.75;9.18;;;;;;;19.55;55.31;102205.59;5001190;28;20026;-67
2022/05/14 07:24:54;;;;;;;22.70;8.13;;;;;;;19.76;54.59;102213.78;5002297;28;20037;-68
2022/05/14 07:27:19;;;;;;;26.67;9.57;;;;;;;19.48;55.67;102219.38;5001176;28;20493;-68
2022/05/14 07:29:45;;;;;;;32.00;7.90;;;;;;;20.13;52.86;102206.63;5003267;28;20069;-70
2022/05/14 07:32:14;;;;;;;27.73;8.90;;;;;;;20.37;52.96;102214.56;5000230;28;20072;-68
2022/05/14 07:34:40;;;;;;;34.70;9.63;;;;;;;20.27;53.11;102212.53;5009183;28;20025;-69
2022/05/14 07:37:16;;;;;;;31.40;9.77;;;;;;;20.77;51.69;102210.34;5001863;28;20041;-69
2022/05/14 07:40:00;;;;;;;22.52;7.03;;;;;;;19.92;52.46;102199.28;5005372;28;20117;-69
2022/05/14 07:42:33;;;;;;;27.30;8.27;;;;;;;20.17;52.48;102206.13;5004596;28;20037;-70
2022/05/14 07:45:03;;;;;;;30.40;8.77;;;;;;;20.38;52.05;102210.75;5010011;28;20042;-68
2022/05/14 07:47:30;;;;;;;22.45;7.30;;;;;;;19.87;53.26;102207.38;5003690;28;20056;-68
2022/05/14 07:49:56;;;;;;;26.35;7.55;;;;;;;20.60;51.13;102203.34;5009992;28;20124;-69
2022/05/14 07:52:22;;;;;;;22.90;8.40;;;;;;;20.09;52.48;102210.94;5005136;28;20037;-69
2022/05/14 07:54:48;;;;;;;24.80;8.82;;;;;;;20.59;51.85;102218.91;5002791;28;20044;-68
2022/05/14 07:57:14;;;;;;;24.08;7.57;;;;;;;19.62;52.67;102215.22;4998723;28;20057;-71
2022/05/14 07:59:39;;;;;;;20.40;6.78;;;;;;;19.93;52.58;102209.09;4996521;28;20422;-69
2022/05/14 08:02:18;;;;;;;24.00;7.38;;;;;;;19.72;52.86;102220.00;4999706;28;20084;-67
2022/05/14 08:04:43;;;;;;;23.08;8.70;;;;;;;20.00;50.66;102215.22;4996415;28;20074;-70
2022/05/14 08:07:09;;;;;;;32.67;8.27;;;;;;;20.37;50.28;102215.38;5009158;28;20042;-70
2022/05/14 08:09:34;;;;;;;30.98;7.90;;;;;;;20.95;49.13;102217.31;5002461;28;20038;-68
2022/05/14 08:11:59;;;;;;;19.83;6.95;;;;;;;20.77;48.47;102212.25;5004751;28;20125;-70
2022/05/14 08:14:25;;;;;;;22.10;6.95;;;;;;;20.56;49.84;102219.41;5009448;28;20037;-67
2022/05/14 08:16:51;;;;;;;24.75;7.85;;;;;;;20.33;49.11;102222.44;5006974;28;20046;-69
2022/05/14 08:19:16;;;;;;;27.95;7.15;;;;;;;20.98;46.19;102220.34;5010448;28;20041;-70
2022/05/14 08:24:36;;;;;;;23.55;6.57;;;;;;;20.82;45.47;102213.09;5002983;28;20512;-70
2022/05/14 08:27:07;;;;;;;22.20;4.57;;;;;;;20.48;46.06;102214.41;5006551;28;20038;-69
2022/05/14 08:29:34;;;;;;;30.30;5.85;;;;;;;20.62;44.83;102223.00;5005571;28;20034;-70
2022/05/14 08:32:00;;;;;;;19.33;6.07;;;;;;;21.43;43.78;102217.16;5001892;28;20083;-69
2022/05/14 08:34:25;;;;;;;26.90;5.50;;;;;;;21.12;44.82;102212.56;5002397;28;20092;-69
2022/05/14 08:36:51;;;;;;;26.95;6.70;;;;;;;21.22;43.04;102218.13;5001065;28;20053;-72
2022/05/14 08:39:16;;;;;;;19.92;4.32;;;;;;;21.44;41.23;102213.34;5001886;28;20034;-69
2022/05/14 08:41:44;;;;;;;17.67;4.63;;;;;;;21.57;41.83;102210.13;5006249;28;20050;-70
2022/05/14 08:44:17;;;;;;;25.42;5.40;;;;;;;21.15;42.53;102208.50;5008183;28;20073;-70
2022/05/14 08:46:44;;;;;;;28.48;4.60;;;;;;;21.19;42.44;102210.41;5006227;28;20034;-69
2022/05/14 08:49:16;;;;;;;17.08;4.78;;;;;;;20.37;42.42;102215.38;5002830;28;20089;-70
2022/05/14 08:51:46;;;;;;;20.63;5.05;;;;;;;21.02;40.74;102212.47;5001944;28;20387;-70
2022/05/14 08:54:12;;;;;;;26.60;4.72;;;;;;;21.77;39.54;102213.00;5003107;28;20064;-70
2022/05/14 08:56:47;;;;;;;21.42;4.85;;;;;;;21.24;40.66;102209.63;5004226;28;20034;-69
2022/05/14 08:59:31;;;;;;;25.83;5.15;;;;;;;21.58;41.00;102209.03;5003394;28;20509;-69
2022/05/14 09:02:07;;;;;;;23.58;4.88;;;;;;;21.91;40.18;102220.75;5009192;28;20030;-69
2022/05/14 09:04:33;;;;;;;17.38;4.80;;;;;;;22.34;38.91;102210.22;5005238;28;20140;-70
2022/05/14 09:06:58;;;;;;;23.95;5.57;;;;;;;21.67;40.12;102212.09;5004110;28;20042;-70
2022/05/14 09:09:24;;;;;;;17.30;4.10;;;;;;;21.88;39.57;102216.63;5002678;28;20038;-69
2022/05/14 09:11:59;;;;;;;19.63;4.80;;;;;;;22.46;38.54;102220.94;5005426;28;20034;-69
2022/05/14 09:14:31;;;;;;;17.83;4.53;;;;;;;23.05;36.43;102221.28;5011055;28;20563;-70
2022/05/14 09:17:05;;;;;;;17.73;4.43;;;;;;;22.59;37.99;102214.94;5011801;28;20046;-70
2022/05/14 09:19:42;;;;;;;24.48;4.78;;;;;;;22.51;39.00;102220.94;5006286;28;20439;-69
2022/05/14 09:22:17;;;;;;;20.40;4.32;;;;;;;21.74;39.09;102218.97;5003712;28;20520;-70
2022/05/14 09:24:51;;;;;;;26.85;5.03;;;;;;;22.59;38.94;102224.00;5000823;28;20030;-68
2022/05/14 09:27:30;;;;;;;25.58;5.68;;;;;;;23.00;37.59;102224.84;4993357;28;20064;-71
2022/05/14 09:30:02;;;;;;;20.58;5.22;;;;;;;22.49;38.36;102225.84;5000078;28;20444;-68
2022/05/14 09:32:34;;;;;;;18.23;4.85;;;;;;;22.30;38.39;102224.72;5010553;28;20041;-69
2022/05/14 09:35:12;;;;;;;30.25;5.32;;;;;;;22.46;37.99;102218.19;5011575;28;20122;-70
2022/05/14 09:37:39;;;;;;;17.67;4.70;;;;;;;23.09;36.98;102217.72;5013679;28;20458;-71
2022/05/14 09:40:12;;;;;;;19.08;4.88;;;;;;;22.94;37.31;102228.69;5006455;28;20571;-69
2022/05/14 09:42:45;;;;;;;14.32;4.20;;;;;;;22.56;38.25;102223.69;5006085;28;20045;-72
2022/05/14 09:45:20;;;;;;;21.13;4.57;;;;;;;23.41;36.31;102225.66;5010233;28;20121;-70
2022/05/14 09:47:46;;;;;;;19.27;3.95;;;;;;;22.78;37.08;102226.22;4993645;28;20038;-69
2022/05/14 09:50:22;;;;;;;22.65;4.97;;;;;;;23.31;37.31;102236.69;4993518;28;20045;-69
2022/05/14 09:53:04;;;;;;;23.52;5.68;;;;;;;23.65;36.83;102234.94;4993390;28;20034;-70
2022/05/14 09:56:03;;;;;;;20.27;4.57;;;;;;;22.57;38.57;102236.31;4993773;28;20030;-69
2022/05/14 09:58:53;;;;;;;16.95;4.03;;;;;;;23.86;35.95;102232.97;4993656;28;20406;-70
2022/05/14 10:01:28;;;;;;;28.40;5.30;;;;;;;23.61;36.27;102222.88;4993460;28;20038;-70
2022/05/14 10:04:03;;;;;;;26.15;4.57;;;;;;;23.79;36.71;102226.94;4992831;28;20453;-71
2022/05/14 10:06:35;;;;;;;21.10;4.43;;;;;;;24.02;34.43;102229.06;4993209;28;20038;-69
2022/05/14 10:09:28;;;;;;;26.35;4.40;;;;;;;23.38;35.59;102228.97;4993182;28;20529;-71
2022/05/14 10:12:17;;;;;;;19.38;4.22;;;;;;;23.69;35.50;102230.53;4998229;28;20048;-69
2022/05/14 10:15:07;;;;;;;20.60;4.63;;;;;;;23.59;35.43;102230.56;5012848;28;20237;-69
2022/05/14 10:17:54;;;;;;;19.20;4.22;;;;;;;23.89;34.37;102222.25;4993057;28;20390;-71
2022/05/14 10:20:55;;;;;;;14.05;3.50;;;;;;;24.26;32.36;102230.91;4993745;28;20034;-69
2022/05/14 10:26:46;;;;;;;16.45;4.30;;;;;;;23.68;33.63;102225.34;4991081;28;19921;-72
2022/05/14 10:29:33;;;;;;;18.05;3.33;;;;;;;23.86;33.99;102228.28;4991431;28;20046;-73
2022/05/14 10:32:03;;;;;;;26.10;4.18;;;;;;;23.62;34.28;102234.69;4982945;28;20093;-70
2022/05/14 10:34:31;;;;;;;;;;;;;;;24.25;33.78;102237.47;4965663;28;20121;-72
2022/05/14 10:37:01;;;;;;;17.73;3.97;;;;;;;24.04;33.64;102235.94;4988161;28;19972;-71
2022/05/14 10:39:39;;;;;;;26.67;4.32;;;;;;;23.73;34.21;102234.38;4978750;28;20070;-69
2022/05/14 10:42:34;;;;;;;17.42;4.05;;;;;;;23.81;33.28;102242.03;4976875;28;20034;-72
2022/05/14 10:45:10;;;;;;;12.52;4.03;;;;;;;22.87;34.94;102241.84;4989906;28;20042;-70
2022/05/14 10:47:42;;;;;;;20.83;4.05;;;;;;;23.39;34.07;102242.41;4990068;28;20062;-69
2022/05/14 10:50:21;;;;;;;25.30;4.97;;;;;;;24.03;33.08;102250.78;4989913;28;20034;-69
2022/05/14 10:52:50;;;;;;;21.17;5.57;;;;;;;23.77;33.90;102240.13;4988676;28;20491;-71
2022/05/14 10:55:19;;;;;;;23.25;4.53;;;;;;;25.23;32.19;102245.66;4990176;28;20072;-71
2022/05/14 10:57:49;;;;;;;16.70;4.18;;;;;;;24.98;31.64;102238.41;4975815;28;20200;-71
2022/05/14 11:00:31;;;;;;;33.70;4.28;;;;;;;25.08;31.70;102238.34;4996389;28;20045;-71
2022/05/14 11:03:00;;;;;;;15.35;4.40;;;;;;;24.34;32.81;102240.47;5002307;28;20042;-68
2022/05/14 11:05:30;;;;;;;13.60;3.85;;;;;;;23.73;33.19;102242.63;5005925;28;20042;-72
2022/05/14 11:08:10;;;;;;;24.02;4.32;;;;;;;23.61;33.68;102231.13;5000262;28;20456;-70
2022/05/14 11:10:35;;;;;;;17.45;4.00;;;;;;;23.99;31.87;102241.44;5010901;28;20053;-71
2022/05/14 11:13:23;;;;;;;18.52;4.93;;;;;;;24.51;32.71;102246.41;5011195;28;20053;-70
2022/05/14 11:16:03;;;;;;;14.52;3.85;;;;;;;25.44;30.70;102236.09;5011468;28;20461;-71
2022/05/14 11:18:29;;;;;;;19.92;4.47;;;;;;;25.09;31.67;102236.41;5011691;28;20038;-70
2022/05/14 11:21:03;;;;;;;21.55;5.20;;;;;;;25.41;30.64;102235.88;5011403;28;20033;-70
2022/05/14 11:23:28;;;;;;;21.88;4.63;;;;;;;25.22;30.95;102243.97;5011085;28;20053;-71
2022/05/14 11:26:10;;;;;;;16.52;3.63;;;;;;;25.49;29.90;102241.56;5010047;28;20041;-70
2022/05/14 11:28:36;;;;;;;20.40;5.00;;;;;;;24.75;30.62;102243.81;5011883;28;20084;-70
2022/05/14 11:31:18;;;;;;;17.10;4.95;;;;;;;25.59;29.60;102243.41;5005748;28;20034;-68
2022/05/14 11:33:45;;;;;;;24.83;6.13;;;;;;;24.78;31.62;102246.84;5001253;28;20259;-72
2022/05/14 11:36:10;;;;;;;20.33;3.92;;;;;;;24.57;31.60;102252.72;5010238;28;20124;-72
2022/05/14 11:38:39;;;;;;;20.38;4.50;;;;;;;24.85;30.30;102250.06;5000993;28;20117;-74
2022/05/14 11:41:11;;;;;;;15.95;4.60;;;;;;;25.02;30.79;102244.97;5001163;28;20025;-71
2022/05/14 11:43:48;;;;;;;24.17;3.42;;;;;;;25.16;30.66;102245.13;5002792;28;20037;-71
2022/05/14 11:46:23;;;;;;;17.77;3.33;;;;;;;25.88;29.79;102258.78;5002443;28;20050;-72